Terminal Aerodrome Forecast
Issued by NWS Omaha/Valley, NE

Home | Current Version | Previous Version | Text Only | Print | Product List | Glossary Off
Versions: 1 2 3 4 5 6 7 8 9 10 11 12 13 14 15

000
FTUS43 KOAX 010526
TAFOFK
TAF
KOFK 010526Z 0106/0206 30011KT P6SM OVC018
     FM011500 31009KT P6SM BKN025 OVC050
     FM011800 31009KT P6SM BKN050
     FM012300 32006KT P6SM BKN035=

USA.gov is the U.S. government's official web portal to all federal, state and local government web resources and services.